Time;durP1;ratioP1;P1;durP2;ratioP2;P2;SDS_P1;SDS_P2;PMS_P1;PMS_P2;Temp;Humidity;BMP_temperature;BMP_pressure;BME280_temperature;BME280_humidity;BME280_pressure;Samples;Min_cycle;Max_cycle;Signal;HPM_P1;HPM_P2
2023/08/06 00:00:38;;;;;;;6.47;5.97;;;16.60;99.90;;;;;;5012044;28;21182;-65
2023/08/06 00:03:05;;;;;;;6.60;5.97;;;16.60;99.90;;;;;;5011994;28;20542;-65
2023/08/06 00:05:33;;;;;;;6.63;6.03;;;16.60;99.90;;;;;;5011818;28;20442;-64
2023/08/06 00:08:00;;;;;;;6.43;5.83;;;16.60;99.90;;;;;;5010895;28;20455;-64
2023/08/06 00:10:27;;;;;;;5.73;5.40;;;16.60;99.90;;;;;;5012045;28;20826;-65
2023/08/06 00:12:54;;;;;;;6.30;5.80;;;16.60;99.90;;;;;;5011777;28;20558;-65
2023/08/06 00:15:21;;;;;;;5.20;4.80;;;16.60;99.90;;;;;;5012006;28;20491;-65
2023/08/06 00:17:47;;;;;;;6.20;5.70;;;16.60;99.90;;;;;;5013987;28;20842;-65
2023/08/06 00:20:14;;;;;;;6.07;5.50;;;16.60;99.90;;;;;;5017072;28;20455;-65
2023/08/06 00:22:42;;;;;;;6.67;5.90;;;16.60;99.90;;;;;;5031347;28;20491;-65
2023/08/06 00:25:09;;;;;;;6.80;6.30;;;16.60;99.90;;;;;;5025125;28;21010;-65
2023/08/06 00:27:37;;;;;;;6.23;5.83;;;16.70;99.90;;;;;;5011102;28;20458;-65
2023/08/06 00:30:04;;;;;;;5.87;5.27;;;16.70;99.90;;;;;;5011668;28;20459;-65
2023/08/06 00:32:31;;;;;;;6.23;5.70;;;16.70;99.90;;;;;;5011585;28;20473;-65
2023/08/06 00:34:58;;;;;;;5.50;5.10;;;16.70;99.90;;;;;;5010199;28;20487;-65
2023/08/06 00:37:25;;;;;;;5.50;5.00;;;16.70;99.90;;;;;;5010757;28;20451;-65
2023/08/06 00:39:53;;;;;;;5.67;5.17;;;16.70;99.90;;;;;;5011301;28;20843;-65
2023/08/06 00:42:21;;;;;;;5.63;5.13;;;16.70;99.90;;;;;;5011116;28;20482;-65
2023/08/06 00:44:48;;;;;;;5.10;4.33;;;16.70;99.90;;;;;;5011161;28;20874;-65
2023/08/06 00:47:15;;;;;;;5.93;5.10;;;16.60;99.90;;;;;;5010452;28;20955;-65
2023/08/06 00:49:42;;;;;;;4.73;4.40;;;16.60;99.90;;;;;;5011448;28;20550;-65
2023/08/06 00:52:09;;;;;;;5.90;5.40;;;16.60;99.90;;;;;;5026654;28;20477;-65
2023/08/06 00:54:36;;;;;;;4.70;4.40;;;16.60;99.90;;;;;;5030893;28;21161;-65
2023/08/06 00:57:07;;;;;;;4.70;4.30;;;16.60;99.90;;;;;;5029923;28;20600;-65
2023/08/06 00:59:35;;;;;;;4.60;4.33;;;16.60;99.90;;;;;;5029752;28;20460;-65
2023/08/06 01:02:02;;;;;;;4.60;4.20;;;16.60;99.90;;;;;;5030798;28;20552;-64
2023/08/06 01:04:29;;;;;;;4.97;4.50;;;16.60;99.90;;;;;;5030767;28;20433;-65
2023/08/06 01:07:04;;;;;;;3.73;3.53;;;16.50;99.90;;;;;;5029925;28;20499;-64
2023/08/06 01:09:40;;;;;;;3.83;3.53;;;16.60;99.90;;;;;;5030589;28;20817;-65
2023/08/06 01:12:23;;;;;;;4.90;4.47;;;16.50;99.90;;;;;;5030533;28;20475;-65
2023/08/06 01:14:58;;;;;;;3.50;3.30;;;16.50;99.90;;;;;;5030659;28;20485;-65
2023/08/06 01:17:26;;;;;;;3.67;3.37;;;16.50;99.90;;;;;;5029682;28;20457;-66
2023/08/06 01:19:53;;;;;;;4.47;4.07;;;16.40;99.90;;;;;;5030229;28;20545;-65
2023/08/06 01:22:21;;;;;;;4.77;3.87;;;16.40;99.90;;;;;;5030140;28;20479;-65
2023/08/06 01:24:51;;;;;;;5.03;4.53;;;16.40;99.90;;;;;;5030158;28;20460;-64
2023/08/06 01:27:27;;;;;;;4.40;4.10;;;16.40;99.90;;;;;;5029463;28;20544;-65
2023/08/06 01:30:02;;;;;;;4.67;4.37;;;16.40;99.90;;;;;;5030092;28;20461;-65
2023/08/06 01:32:32;;;;;;;3.83;3.63;;;16.40;99.90;;;;;;5030120;28;20478;-65
2023/08/06 01:35:01;;;;;;;4.00;3.70;;;16.40;99.90;;;;;;5029021;28;21293;-64
2023/08/06 01:37:30;;;;;;;3.80;3.50;;;16.40;99.90;;;;;;5029593;28;20455;-65
2023/08/06 01:39:57;;;;;;;3.87;3.60;;;16.40;99.90;;;;;;5030386;28;20460;-64
2023/08/06 01:42:23;;;;;;;4.10;3.80;;;16.40;99.90;;;;;;5017856;28;20483;-65
2023/08/06 01:44:50;;;;;;;3.87;3.57;;;16.40;99.90;;;;;;5010139;28;20862;-65
2023/08/06 01:47:17;;;;;;;4.17;3.87;;;16.40;99.90;;;;;;5009295;28;20455;-65
2023/08/06 01:49:44;;;;;;;5.10;3.87;;;16.30;99.90;;;;;;5009903;28;20450;-66
2023/08/06 01:52:11;;;;;;;4.73;3.67;;;16.30;99.90;;;;;;5017705;28;20557;-64
2023/08/06 01:54:39;;;;;;;5.57;3.40;;;16.30;99.90;;;;;;5029556;28;20442;-64
2023/08/06 01:57:07;;;;;;;3.63;3.33;;;16.30;99.90;;;;;;5028739;28;20867;-65
2023/08/06 01:59:34;;;;;;;3.17;2.97;;;16.30;99.90;;;;;;5029381;28;20548;-64
2023/08/06 02:02:00;;;;;;;2.80;2.70;;;16.20;99.90;;;;;;5029440;28;20492;-65
2023/08/06 02:04:27;;;;;;;3.33;3.13;;;16.20;99.90;;;;;;5029566;28;20454;-65
2023/08/06 02:06:54;;;;;;;3.53;3.20;;;16.10;99.90;;;;;;5028634;28;20540;-65
2023/08/06 02:09:21;;;;;;;3.20;2.87;;;16.10;99.90;;;;;;5029490;28;20458;-65
2023/08/06 02:11:49;;;;;;;3.23;3.03;;;16.10;99.90;;;;;;5029464;28;20470;-65
2023/08/06 02:14:16;;;;;;;3.60;3.40;;;16.00;99.90;;;;;;5029236;28;20453;-65
2023/08/06 02:16:43;;;;;;;2.87;2.77;;;16.00;99.90;;;;;;5028163;28;21131;-65
2023/08/06 02:19:09;;;;;;;5.37;4.10;;;15.90;99.90;;;;;;5029297;28;20448;-65
2023/08/06 02:21:36;;;;;;;4.10;3.70;;;15.90;99.90;;;;;;5029127;28;20479;-65
2023/08/06 02:24:04;;;;;;;3.13;2.90;;;15.80;99.90;;;;;;5029175;28;20833;-67
2023/08/06 02:26:30;;;;;;;2.87;2.67;;;15.80;99.90;;;;;;5028215;28;20837;-65
2023/08/06 02:28:58;;;;;;;4.00;3.50;;;15.80;99.90;;;;;;5029056;28;20445;-65
2023/08/06 02:31:25;;;;;;;5.70;3.00;;;15.70;99.90;;;;;;5029194;28;20469;-65
2023/08/06 02:33:53;;;;;;;2.37;2.17;;;15.70;99.90;;;;;;5029120;28;20479;-65
2023/08/06 02:36:20;;;;;;;3.30;3.10;;;15.60;99.90;;;;;;5027117;28;20521;-65
2023/08/06 02:38:47;;;;;;;3.27;2.97;;;15.50;99.90;;;;;;5028983;28;20536;-64
2023/08/06 02:41:14;;;;;;;2.47;2.27;;;15.50;99.90;;;;;;5029111;28;20480;-65
2023/08/06 02:43:41;;;;;;;3.90;3.50;;;15.40;99.90;;;;;;5029051;28;20460;-64
2023/08/06 02:46:09;;;;;;;3.60;3.30;;;15.40;99.90;;;;;;5028199;28;20449;-64
2023/08/06 02:48:36;;;;;;;3.10;2.90;;;15.40;99.90;;;;;;5028670;28;20450;-64
2023/08/06 02:51:03;;;;;;;2.93;2.67;;;15.40;99.90;;;;;;5028651;28;20470;-65
2023/08/06 02:53:29;;;;;;;3.70;3.40;;;15.30;99.90;;;;;;5028634;28;20454;-65
2023/08/06 02:55:56;;;;;;;3.77;3.37;;;15.30;99.90;;;;;;5027876;28;20480;-63
2023/08/06 02:58:23;;;;;;;2.83;2.63;;;15.30;99.90;;;;;;5028760;28;20445;-64
2023/08/06 03:01:02;;;;;;;3.90;3.50;;;15.30;99.90;;;;;;5028574;28;20453;-64
2023/08/06 03:03:30;;;;;;;3.70;3.30;;;15.30;99.90;;;;;;5028632;28;20537;-64
2023/08/06 03:05:57;;;;;;;3.43;3.23;;;15.40;99.90;;;;;;5027887;28;20540;-63
2023/08/06 03:08:24;;;;;;;5.40;3.40;;;15.40;99.90;;;;;;5028876;28;20524;-65
2023/08/06 03:10:51;;;;;;;14.00;3.70;;;15.40;99.90;;;;;;5028402;28;20463;-65
2023/08/06 03:13:19;;;;;;;3.33;3.03;;;15.50;99.90;;;;;;5028467;28;20448;-65
2023/08/06 03:15:53;;;;;;;3.70;3.40;;;15.50;99.90;;;;;;5028127;28;20456;-65
2023/08/06 03:18:20;;;;;;;4.30;3.90;;;15.50;99.90;;;;;;5027993;28;20456;-64
2023/08/06 03:20:48;;;;;;;3.30;3.10;;;15.50;99.90;;;;;;5027543;28;20445;-64
2023/08/06 03:23:15;;;;;;;3.53;3.23;;;15.60;99.90;;;;;;5028304;28;20528;-64
2023/08/06 03:25:41;;;;;;;3.50;3.20;;;15.60;99.90;;;;;;5028130;28;20462;-65
2023/08/06 03:28:08;;;;;;;3.60;3.30;;;15.50;99.90;;;;;;5027496;28;20540;-65
2023/08/06 03:30:35;;;;;;;3.70;3.40;;;15.60;99.90;;;;;;5028231;28;20536;-65
2023/08/06 03:33:02;;;;;;;4.27;3.87;;;15.60;99.90;;;;;;5028044;28;20965;-65
2023/08/06 03:35:29;;;;;;;4.90;3.70;;;15.60;99.90;;;;;;5027271;28;20449;-64
2023/08/06 03:37:57;;;;;;;3.33;3.03;;;15.60;99.90;;;;;;5027556;28;20491;-64
2023/08/06 03:40:24;;;;;;;3.80;3.50;;;15.60;99.90;;;;;;5028276;28;20460;-65
2023/08/06 03:42:51;;;;;;;3.50;3.30;;;15.60;99.90;;;;;;5024560;28;21004;-65
2023/08/06 03:45:18;;;;;;;6.63;3.80;;;15.60;99.90;;;;;;5027950;28;20445;-65
2023/08/06 03:47:44;;;;;;;4.30;3.93;;;15.60;99.90;;;;;;5027270;28;20444;-65
2023/08/06 03:50:11;;;;;;;4.03;3.73;;;15.60;99.90;;;;;;5028090;28;20971;-65
2023/08/06 03:52:38;;;;;;;3.67;3.47;;;15.60;99.90;;;;;;5027926;28;20475;-66
2023/08/06 03:55:07;;;;;;;3.63;3.43;;;15.60;99.90;;;;;;5027755;28;21141;-65
2023/08/06 03:57:34;;;;;;;4.60;3.63;;;15.60;99.90;;;;;;5027103;28;20489;-65
2023/08/06 04:00:00;;;;;;;3.93;3.63;;;15.60;99.90;;;;;;5028139;28;20537;-65
2023/08/06 04:02:27;;;;;;;4.60;3.83;;;15.60;99.90;;;;;;5027817;28;20556;-64
2023/08/06 04:04:54;;;;;;;4.20;3.80;;;15.60;99.90;;;;;;5028252;28;20459;-65
2023/08/06 04:07:21;;;;;;;3.70;3.40;;;15.60;99.90;;;;;;5027380;28;20947;-66
2023/08/06 04:09:55;;;;;;;3.90;3.60;;;15.60;99.90;;;;;;5027902;28;20450;-65
2023/08/06 04:12:23;;;;;;;4.43;4.03;;;15.60;99.90;;;;;;5028129;28;20855;-65
2023/08/06 04:14:51;;;;;;;4.70;4.30;;;15.60;99.90;;;;;;5027753;28;20446;-65
2023/08/06 04:17:20;;;;;;;3.37;3.17;;;15.50;99.90;;;;;;5027076;28;20492;-65
2023/08/06 04:19:48;;;;;;;3.10;2.83;;;15.50;99.90;;;;;;5027689;28;20515;-65
2023/08/06 04:22:15;;;;;;;3.17;2.97;;;15.50;99.90;;;;;;5027246;28;20479;-65
2023/08/06 04:24:42;;;;;;;4.50;3.30;;;15.50;99.90;;;;;;5027523;28;20969;-64
2023/08/06 04:27:10;;;;;;;3.00;2.80;;;15.40;99.90;;;;;;5027089;28;20514;-65
2023/08/06 04:29:38;;;;;;;4.67;3.43;;;15.40;99.90;;;;;;5027564;28;20449;-64
2023/08/06 04:32:07;;;;;;;3.63;3.33;;;15.30;99.90;;;;;;5027566;28;20475;-66
2023/08/06 04:34:34;;;;;;;6.13;3.63;;;15.30;99.90;;;;;;5029412;28;20454;-64
2023/08/06 04:37:01;;;;;;;3.40;3.20;;;15.30;99.90;;;;;;5030178;28;20490;-65
2023/08/06 04:39:28;;;;;;;3.97;3.67;;;15.30;99.90;;;;;;5030795;28;20539;-65
2023/08/06 04:41:56;;;;;;;4.90;4.07;;;15.20;99.90;;;;;;5031045;28;20473;-65
2023/08/06 04:44:23;;;;;;;4.27;3.57;;;15.20;99.90;;;;;;5030753;28;20467;-65
2023/08/06 04:46:51;;;;;;;3.90;3.27;;;15.20;99.90;;;;;;5030174;28;20449;-65
2023/08/06 04:49:18;;;;;;;4.23;3.80;;;15.20;99.90;;;;;;5030223;28;20535;-64
2023/08/06 04:51:45;;;;;;;5.03;3.73;;;15.30;99.90;;;;;;5030809;28;20479;-65
2023/08/06 04:54:12;;;;;;;3.23;3.00;;;15.20;99.90;;;;;;5030792;28;20540;-65
2023/08/06 04:56:39;;;;;;;3.87;3.57;;;15.30;99.90;;;;;;5030271;28;20485;-64
2023/08/06 04:59:06;;;;;;;4.13;3.73;;;15.30;99.90;;;;;;5030708;28;20448;-65
2023/08/06 05:01:32;;;;;;;4.10;3.70;;;15.40;99.90;;;;;;5030803;28;20479;-65
2023/08/06 05:04:01;;;;;;;4.77;4.37;;;15.40;99.90;;;;;;5030748;28;20450;-65
2023/08/06 05:06:27;;;;;;;4.07;3.80;;;15.40;99.90;;;;;;5030265;28;20446;-65
2023/08/06 05:08:54;;;;;;;7.60;4.13;;;15.50;99.90;;;;;;5030593;28;20446;-65
2023/08/06 05:11:21;;;;;;;4.30;3.83;;;15.50;99.90;;;;;;5030316;28;20470;-65
2023/08/06 05:13:48;;;;;;;3.70;3.40;;;15.60;99.90;;;;;;5030476;28;20457;-64
2023/08/06 05:16:15;;;;;;;4.10;3.80;;;15.60;99.90;;;;;;5029218;28;20457;-65
2023/08/06 05:18:42;;;;;;;6.17;3.97;;;15.70;99.90;;;;;;5030135;28;21001;-64
2023/08/06 05:21:10;;;;;;;3.17;2.97;;;15.70;99.90;;;;;;5029890;28;20479;-65
2023/08/06 05:23:37;;;;;;;4.10;3.80;;;15.80;99.90;;;;;;5030356;28;20455;-65
2023/08/06 05:26:04;;;;;;;4.17;3.47;;;15.80;99.90;;;;;;5029314;28;20951;-65
2023/08/06 05:28:30;;;;;;;7.47;4.03;;;15.90;99.90;;;;;;5030362;28;20445;-65
2023/08/06 05:30:57;;;;;;;4.57;4.17;;;15.90;99.90;;;;;;5030214;28;20491;-65
2023/08/06 05:33:24;;;;;;;4.40;3.77;;;15.90;99.90;;;;;;5030492;28;20460;-64
2023/08/06 05:35:51;;;;;;;3.77;3.50;;;15.90;99.90;;;;;;5028473;28;20837;-64
2023/08/06 05:38:19;;;;;;;3.50;3.20;;;15.90;99.90;;;;;;5029565;28;20488;-64
2023/08/06 05:40:46;;;;;;;5.77;5.37;;;15.90;99.90;;;;;;5029562;28;20495;-64
2023/08/06 05:43:13;;;;;;;3.60;3.30;;;15.90;99.90;;;;;;5030030;28;20540;-65
2023/08/06 05:45:39;;;;;;;3.40;3.10;;;15.90;99.90;;;;;;5029136;28;20459;-64
2023/08/06 05:48:06;;;;;;;5.37;4.20;;;16.00;99.90;;;;;;5028903;28;20541;-65
2023/08/06 05:50:33;;;;;;;3.40;3.20;;;16.00;99.90;;;;;;5029342;28;21061;-65
2023/08/06 05:53:00;;;;;;;3.87;3.20;;;16.10;99.90;;;;;;5029539;28;20470;-64
2023/08/06 05:55:28;;;;;;;3.40;3.10;;;16.30;99.90;;;;;;5029445;28;20460;-64
2023/08/06 05:57:55;;;;;;;3.60;3.30;;;16.30;99.90;;;;;;5028729;28;21046;-64
2023/08/06 06:00:22;;;;;;;3.70;3.40;;;16.40;99.90;;;;;;5029824;28;20892;-63
2023/08/06 06:02:49;;;;;;;5.40;4.23;;;16.40;99.90;;;;;;5028991;28;20556;-64
2023/08/06 06:05:16;;;;;;;3.07;2.83;;;16.50;99.90;;;;;;5029267;28;20536;-64
2023/08/06 06:07:43;;;;;;;3.90;3.50;;;16.50;99.90;;;;;;5028386;28;20534;-64
2023/08/06 06:10:10;;;;;;;3.63;3.33;;;16.60;99.90;;;;;;5028642;28;20453;-65
2023/08/06 06:12:39;;;;;;;3.10;2.90;;;16.60;99.90;;;;;;5021064;28;20557;-65
2023/08/06 06:15:07;;;;;;;4.20;3.23;;;16.70;99.90;;;;;;5028433;28;20539;-64
2023/08/06 06:17:34;;;;;;;3.53;3.23;;;16.60;99.90;;;;;;5016892;28;20494;-64
2023/08/06 06:20:00;;;;;;;2.50;2.30;;;16.70;99.90;;;;;;5025219;28;20546;-65
2023/08/06 06:22:28;;;;;;;3.83;2.90;;;16.70;99.90;;;;;;5026942;28;20489;-64
2023/08/06 06:24:55;;;;;;;5.30;2.43;;;16.60;99.90;;;;;;5020477;28;20507;-64
2023/08/06 06:27:22;;;;;;;5.40;2.50;;;16.70;99.90;;;;;;5028089;28;20464;-64
2023/08/06 06:29:51;;;;;;;2.53;2.30;;;16.60;99.90;;;;;;5029053;28;20457;-63
2023/08/06 06:32:17;;;;;;;4.07;2.87;;;16.60;99.90;;;;;;5028670;28;20473;-64
2023/08/06 06:34:44;;;;;;;3.27;2.97;;;16.50;99.90;;;;;;5027763;28;20545;-64
2023/08/06 06:37:11;;;;;;;4.20;2.87;;;16.60;99.90;;;;;;5028206;28;21355;-64
2023/08/06 06:39:38;;;;;;;5.07;4.57;;;16.50;99.90;;;;;;5028818;28;20450;-64
2023/08/06 06:42:05;;;;;;;3.00;2.30;;;16.50;99.90;;;;;;5028503;28;20466;-64
2023/08/06 06:44:32;;;;;;;2.87;2.30;;;16.60;99.90;;;;;;5028519;28;20473;-64
2023/08/06 06:46:59;;;;;;;1.93;1.83;;;16.60;99.90;;;;;;5027911;28;20444;-64
2023/08/06 06:49:26;;;;;;;2.20;2.03;;;16.50;99.90;;;;;;5028241;28;20462;-64
2023/08/06 06:51:53;;;;;;;3.87;2.70;;;16.50;99.90;;;;;;5027522;28;20469;-64
2023/08/06 06:54:20;;;;;;;2.50;2.30;;;16.50;99.90;;;;;;5028565;28;20457;-65
2023/08/06 06:56:47;;;;;;;4.30;2.70;;;16.40;99.90;;;;;;5027253;28;20450;-64
2023/08/06 06:59:13;;;;;;;3.47;2.47;;;16.50;99.90;;;;;;5028137;28;20457;-64
2023/08/06 07:01:40;;;;;;;2.23;2.00;;;16.50;99.90;;;;;;5028051;28;20560;-64
2023/08/06 07:04:08;;;;;;;2.43;2.20;;;16.50;99.90;;;;;;5028237;28;20460;-64
2023/08/06 07:06:35;;;;;;;2.80;2.60;;;16.50;99.90;;;;;;5027630;28;20889;-63
2023/08/06 07:09:02;;;;;;;5.10;1.70;;;16.50;99.90;;;;;;5028307;28;20537;-64
2023/08/06 07:11:29;;;;;;;2.90;2.70;;;16.50;99.90;;;;;;5028366;28;20475;-65
2023/08/06 07:13:58;;;;;;;1.80;1.70;;;16.50;99.90;;;;;;5027046;28;20540;-64
2023/08/06 07:16:25;;;;;;;1.83;1.73;;;16.50;99.90;;;;;;5027726;28;20454;-64
2023/08/06 07:18:53;;;;;;;2.20;1.63;;;16.50;99.90;;;;;;5028188;28;20515;-64
2023/08/06 07:21:21;;;;;;;2.57;2.10;;;16.50;99.90;;;;;;5027808;28;20497;-63
2023/08/06 07:23:49;;;;;;;4.17;2.60;;;16.50;99.90;;;;;;5028233;28;20445;-64
2023/08/06 07:26:16;;;;;;;2.63;2.03;;;16.60;99.90;;;;;;5027652;28;20454;-64
2023/08/06 07:28:43;;;;;;;3.50;1.83;;;16.70;99.90;;;;;;5028358;28;20442;-64
2023/08/06 07:31:09;;;;;;;2.70;2.00;;;16.70;99.90;;;;;;5028184;28;20471;-65
2023/08/06 07:33:36;;;;;;;1.53;1.43;;;16.70;99.90;;;;;;5028203;28;20832;-64
2023/08/06 07:36:09;;;;;;;2.30;2.13;;;16.70;99.90;;;;;;5027079;28;20451;-67
2023/08/06 07:38:37;;;;;;;2.03;1.80;;;16.80;99.90;;;;;;5026121;28;20493;-64
2023/08/06 07:41:04;;;;;;;3.70;1.77;;;16.80;99.90;;;;;;5027247;28;20544;-63
2023/08/06 07:43:31;;;;;;;1.70;1.50;;;16.80;99.90;;;;;;5027811;28;21065;-64
2023/08/06 07:46:00;;;;;;;1.50;1.40;;;16.80;99.90;;;;;;5026601;28;20538;-64
2023/08/06 07:48:27;;;;;;;1.73;1.63;;;16.80;99.90;;;;;;5027236;28;20446;-64
2023/08/06 07:50:54;;;;;;;1.80;1.70;;;16.80;99.90;;;;;;5027661;28;20541;-65
2023/08/06 07:53:21;;;;;;;1.47;1.37;;;16.90;99.90;;;;;;5027521;28;20507;-66
2023/08/06 07:55:51;;;;;;;1.10;1.10;;;17.00;99.90;;;;;;5027581;28;20461;-65
2023/08/06 07:58:18;;;;;;;1.73;1.10;;;17.00;99.90;;;;;;5027229;28;20903;-65
2023/08/06 08:00:45;;;;;;;1.50;1.40;;;16.90;99.90;;;;;;5027393;28;20895;-65
2023/08/06 08:03:13;;;;;;;1.40;1.30;;;16.90;99.90;;;;;;5027318;28;20458;-64
2023/08/06 08:05:40;;;;;;;1.10;1.10;;;16.90;99.90;;;;;;5027831;28;20454;-64
2023/08/06 08:08:07;;;;;;;3.57;1.33;;;16.90;99.90;;;;;;5029311;28;20480;-64
2023/08/06 08:10:34;;;;;;;1.00;0.97;;;16.90;99.90;;;;;;5031500;28;20487;-64
2023/08/06 08:13:02;;;;;;;0.80;0.80;;;17.00;99.90;;;;;;5031502;28;20556;-64
2023/08/06 08:15:30;;;;;;;1.00;1.00;;;16.90;99.90;;;;;;5031003;28;20445;-65
2023/08/06 08:17:57;;;;;;;0.90;0.90;;;16.90;99.90;;;;;;5030273;28;20490;-64
2023/08/06 08:20:23;;;;;;;0.83;0.83;;;16.80;99.90;;;;;;5031048;28;20455;-64
2023/08/06 08:22:50;;;;;;;3.00;1.00;;;16.80;99.90;;;;;;5030907;28;20478;-66
2023/08/06 08:25:17;;;;;;;0.97;0.97;;;16.70;99.90;;;;;;5028485;28;20450;-64
2023/08/06 08:27:44;;;;;;;0.80;0.77;;;16.60;99.90;;;;;;5038319;28;20442;-65
2023/08/06 08:30:12;;;;;;;2.50;1.17;;;16.50;99.90;;;;;;5050356;28;20976;-64
2023/08/06 08:32:39;;;;;;;0.80;0.80;;;16.50;99.90;;;;;;5050031;28;20503;-63
2023/08/06 08:35:06;;;;;;;0.90;0.90;;;16.50;99.90;;;;;;5038316;28;20452;-64
2023/08/06 08:37:33;;;;;;;2.20;1.10;;;16.50;99.90;;;;;;5029247;28;20577;-63
2023/08/06 08:40:00;;;;;;;0.70;0.70;;;16.60;99.90;;;;;;5031646;28;20459;-64
2023/08/06 08:42:28;;;;;;;1.13;1.13;;;16.50;99.90;;;;;;5050391;28;20489;-64
2023/08/06 08:44:56;;;;;;;2.37;1.10;;;16.60;99.90;;;;;;5050301;28;20530;-63
2023/08/06 08:47:25;;;;;;;1.70;1.20;;;16.70;99.90;;;;;;5049182;28;20548;-65
2023/08/06 08:49:55;;;;;;;1.40;1.20;;;16.70;99.90;;;;;;5043904;28;20528;-65
2023/08/06 08:52:23;;;;;;;1.00;0.90;;;16.70;99.90;;;;;;5038385;28;20473;-63
2023/08/06 08:54:52;;;;;;;0.80;0.80;;;16.70;99.90;;;;;;5045457;28;20458;-63
2023/08/06 08:57:19;;;;;;;1.23;0.93;;;16.70;99.90;;;;;;5032044;28;20445;-64
2023/08/06 08:59:46;;;;;;;1.03;1.03;;;16.80;99.90;;;;;;5043083;28;20474;-64
2023/08/06 09:02:15;;;;;;;1.00;1.00;;;16.90;99.90;;;;;;5040412;28;20840;-64
2023/08/06 09:04:45;;;;;;;1.33;0.83;;;16.90;99.90;;;;;;5035805;28;20529;-64
2023/08/06 09:07:17;;;;;;;2.43;0.70;;;17.00;99.90;;;;;;5045355;28;20533;-64
2023/08/06 09:09:46;;;;;;;1.87;0.70;;;17.10;99.90;;;;;;5036299;28;21016;-63
2023/08/06 09:12:15;;;;;;;0.83;0.83;;;17.20;99.90;;;;;;5039332;28;21101;-64
2023/08/06 09:14:43;;;;;;;0.90;0.90;;;17.30;99.90;;;;;;5044227;28;20975;-63
2023/08/06 09:17:11;;;;;;;0.70;0.70;;;17.30;99.90;;;;;;5027097;28;20923;-64
2023/08/06 09:19:38;;;;;;;1.03;0.77;;;17.40;99.90;;;;;;5037974;28;20478;-64
2023/08/06 09:22:10;;;;;;;0.50;0.50;;;17.40;99.90;;;;;;5018792;28;20486;-65
2023/08/06 09:24:40;;;;;;;0.70;0.70;;;17.50;99.90;;;;;;5042336;28;20454;-64
2023/08/06 09:27:11;;;;;;;0.60;0.60;;;17.50;99.90;;;;;;5030611;28;20831;-63
2023/08/06 09:29:41;;;;;;;1.37;0.43;;;17.60;99.90;;;;;;5043848;28;20443;-64
2023/08/06 09:32:08;;;;;;;0.60;0.60;;;17.50;99.90;;;;;;5038893;28;20466;-64
2023/08/06 09:34:35;;;;;;;1.27;0.50;;;17.50;99.90;;;;;;5029341;28;20445;-63
2023/08/06 09:37:04;;;;;;;0.87;0.87;;;17.50;99.90;;;;;;5028072;28;20453;-64
2023/08/06 09:39:32;;;;;;;0.77;0.77;;;17.50;99.90;;;;;;5044550;28;20568;-63
2023/08/06 09:42:01;;;;;;;1.40;0.70;;;17.50;99.90;;;;;;5036873;28;20512;-64
2023/08/06 09:44:31;;;;;;;0.90;0.80;;;17.50;99.90;;;;;;5037056;28;20951;-64
2023/08/06 09:46:59;;;;;;;0.60;0.57;;;17.50;99.90;;;;;;5045078;28;20456;-63
2023/08/06 09:49:27;;;;;;;0.50;0.50;;;17.50;99.90;;;;;;5016957;28;20450;-64
2023/08/06 09:51:55;;;;;;;0.70;0.70;;;17.50;99.90;;;;;;5041087;28;20472;-63
2023/08/06 09:54:24;;;;;;;0.40;0.40;;;17.60;99.90;;;;;;5040924;28;20906;-64
2023/08/06 09:56:52;;;;;;;0.50;0.50;;;17.70;99.90;;;;;;5032387;28;20819;-65
2023/08/06 09:59:19;;;;;;;0.60;0.50;;;17.80;99.90;;;;;;5045385;28;20579;-64
2023/08/06 10:01:47;;;;;;;0.40;0.40;;;18.00;99.90;;;;;;5035514;28;20913;-64
2023/08/06 10:04:16;;;;;;;0.50;0.43;;;18.10;99.90;;;;;;5036451;28;20995;-64
2023/08/06 10:06:43;;;;;;;0.53;0.40;;;18.30;99.90;;;;;;5042495;28;20447;-64
2023/08/06 10:09:10;;;;;;;0.50;0.50;;;18.30;99.90;;;;;;5031954;28;20444;-64
2023/08/06 10:11:38;;;;;;;0.70;0.70;;;18.20;99.90;;;;;;5043243;28;20540;-63
2023/08/06 10:14:12;;;;;;;0.97;0.57;;;18.30;99.90;;;;;;5037929;28;20462;-64
2023/08/06 10:16:40;;;;;;;2.10;0.60;;;18.40;99.90;;;;;;5033569;28;20558;-64
2023/08/06 10:19:10;;;;;;;0.53;0.53;;;18.40;99.90;;;;;;5044743;28;20491;-64
2023/08/06 10:21:39;;;;;;;0.60;0.60;;;18.50;99.90;;;;;;5033840;28;20502;-64
2023/08/06 10:24:09;;;;;;;0.63;0.60;;;18.60;99.90;;;;;;5039067;28;20531;-63
2023/08/06 10:26:36;;;;;;;0.50;0.50;;;18.80;99.90;;;;;;5041261;28;20505;-64
2023/08/06 10:29:23;;;;;;;0.63;0.50;;;18.90;99.90;;;;;;5031403;28;20444;-64
2023/08/06 10:32:00;;;;;;;0.40;0.40;;;19.00;99.90;;;;;;5040854;28;20460;-65
2023/08/06 10:34:54;;;;;;;0.87;0.70;;;19.00;99.90;;;;;;5040810;28;20447;-64
2023/08/06 10:37:22;;;;;;;0.70;0.60;;;19.00;99.90;;;;;;5030729;28;20447;-65
2023/08/06 10:39:50;;;;;;;0.93;0.70;;;19.10;99.90;;;;;;5040545;28;20484;-65
2023/08/06 10:42:29;;;;;;;0.80;0.70;;;19.20;99.90;;;;;;5038912;28;20476;-65
2023/08/06 10:45:16;;;;;;;0.53;0.53;;;19.40;99.90;;;;;;5031909;28;20564;-65
2023/08/06 10:47:44;;;;;;;0.73;0.73;;;19.50;99.90;;;;;;5019202;28;20472;-64
2023/08/06 10:50:16;;;;;;;0.80;0.80;;;19.60;99.90;;;;;;5037618;28;20441;-65
2023/08/06 10:52:43;;;;;;;0.73;0.60;;;19.80;99.90;;;;;;5042375;28;20571;-64
2023/08/06 10:55:10;;;;;;;0.60;0.60;;;19.90;99.90;;;;;;5031380;28;20920;-64
2023/08/06 10:57:37;;;;;;;0.57;0.57;;;20.00;99.90;;;;;;5041560;28;20528;-63
2023/08/06 11:00:08;;;;;;;0.60;0.60;;;20.00;99.90;;;;;;5036875;28;20523;-63
2023/08/06 11:02:35;;;;;;;0.47;0.47;;;19.90;99.90;;;;;;5034264;28;21013;-63
2023/08/06 11:05:11;;;;;;;0.67;0.63;;;20.00;99.90;;;;;;5044579;28;20813;-64
2023/08/06 11:07:38;;;;;;;0.50;0.50;;;19.80;99.90;;;;;;5032404;28;20900;-64
2023/08/06 11:10:07;;;;;;;0.87;0.70;;;19.80;99.90;;;;;;5038243;28;20817;-64
2023/08/06 11:12:35;;;;;;;0.80;0.80;;;19.60;99.90;;;;;;5040924;28;20472;-64
2023/08/06 11:15:03;;;;;;;0.40;0.40;;;19.50;99.90;;;;;;5025154;28;20540;-63
2023/08/06 11:17:31;;;;;;;0.70;0.50;;;19.50;99.90;;;;;;5031750;28;20456;-64
2023/08/06 11:20:00;;;;;;;0.80;0.80;;;19.60;99.90;;;;;;5031152;28;20579;-64
2023/08/06 11:22:28;;;;;;;0.60;0.60;;;19.80;99.90;;;;;;5025769;28;20568;-64
2023/08/06 11:24:56;;;;;;;1.23;0.60;;;20.00;99.90;;;;;;5027465;28;21044;-63
2023/08/06 11:27:23;;;;;;;0.40;0.40;;;20.20;99.90;;;;;;5025573;28;20444;-64
2023/08/06 11:29:50;;;;;;;0.43;0.43;;;20.30;99.90;;;;;;5024826;28;20451;-64
2023/08/06 11:32:17;;;;;;;0.73;0.50;;;20.50;99.90;;;;;;5030859;28;20860;-64
2023/08/06 11:34:44;;;;;;;0.50;0.50;;;20.50;99.90;;;;;;5025157;28;20453;-64
2023/08/06 11:37:11;;;;;;;0.40;0.40;;;20.50;99.90;;;;;;5030546;28;21312;-64
2023/08/06 11:39:39;;;;;;;0.60;0.60;;;20.60;99.90;;;;;;5027494;28;20507;-64
2023/08/06 11:42:07;;;;;;;0.50;0.50;;;20.70;99.90;;;;;;5031378;28;20472;-64
2023/08/06 11:44:36;;;;;;;0.60;0.40;;;20.60;99.90;;;;;;5031724;28;21121;-65
2023/08/06 11:47:05;;;;;;;0.50;0.50;;;20.60;99.90;;;;;;5031881;28;21207;-65
2023/08/06 11:49:40;;;;;;;1.03;0.67;;;20.50;99.90;;;;;;5030539;28;20933;-64
2023/08/06 11:52:18;;;;;;;1.60;0.60;;;20.40;99.90;;;;;;5032783;28;20479;-64
2023/08/06 11:55:00;;;;;;;0.93;0.90;;;20.20;99.90;;;;;;5031379;28;20558;-66
2023/08/06 11:57:28;;;;;;;2.47;1.50;;;19.90;99.90;;;;;;5033469;28;20531;-65
2023/08/06 11:59:55;;;;;;;3.00;0.80;;;19.50;99.90;;;;;;5019244;28;20491;-63
2023/08/06 12:02:27;;;;;;;2.23;0.70;;;18.70;99.90;;;;;;5025028;28;20578;-64
2023/08/06 12:05:01;;;;;;;0.93;0.90;;;18.30;99.90;;;;;;5020841;28;20469;-64
2023/08/06 12:07:30;;;;;;;0.67;0.67;;;17.80;99.90;;;;;;5024728;28;20442;-64
2023/08/06 12:09:58;;;;;;;3.07;0.70;;;17.60;99.90;;;;;;5027514;28;20450;-65
2023/08/06 12:12:25;;;;;;;0.60;0.60;;;17.50;99.90;;;;;;5032911;28;20546;-65
2023/08/06 12:14:52;;;;;;;0.90;0.90;;;17.40;99.90;;;;;;5029584;28;20461;-65
2023/08/06 12:17:19;;;;;;;1.30;0.80;;;17.40;99.90;;;;;;5033434;28;20447;-64
2023/08/06 12:19:47;;;;;;;1.07;0.50;;;17.60;99.90;;;;;;5028287;28;20839;-64
2023/08/06 12:22:14;;;;;;;1.03;0.70;;;17.60;99.90;;;;;;5028769;28;20475;-64
2023/08/06 12:24:41;;;;;;;0.80;0.80;;;17.60;99.90;;;;;;5025812;28;20470;-65
2023/08/06 12:27:10;;;;;;;1.00;0.90;;;17.60;99.90;;;;;;5034165;28;20456;-65
2023/08/06 12:29:38;;;;;;;1.07;0.60;;;17.80;99.90;;;;;;5028907;28;20541;-65
2023/08/06 12:32:05;;;;;;;0.53;0.53;;;17.90;99.90;;;;;;5034605;28;20475;-64
2023/08/06 12:34:32;;;;;;;1.53;0.60;;;18.00;99.90;;;;;;5029109;28;20471;-65
2023/08/06 12:36:59;;;;;;;1.23;1.13;;;18.00;99.90;;;;;;5033314;28;20448;-65
2023/08/06 12:39:28;;;;;;;1.10;0.90;;;18.00;99.90;;;;;;5032335;28;20498;-64
2023/08/06 12:41:57;;;;;;;0.90;0.70;;;17.80;99.90;;;;;;5029891;28;20551;-65
2023/08/06 12:44:25;;;;;;;3.63;0.80;;;17.70;99.90;;;;;;5028708;28;21052;-65
2023/08/06 12:46:52;;;;;;;1.57;1.47;;;17.50;99.90;;;;;;5032924;28;20527;-65
2023/08/06 12:49:20;;;;;;;1.00;0.70;;;17.30;99.90;;;;;;5033586;28;20488;-65
2023/08/06 12:51:47;;;;;;;1.00;0.80;;;17.30;99.90;;;;;;5033759;28;20529;-64